Time;durP1;ratioP1;P1;durP2;ratioP2;P2;SDS_P1;SDS_P2;PMS_P1;PMS_P2;Temp;Humidity;BMP_temperature;BMP_pressure;BME280_temperature;BME280_humidity;BME280_pressure;Samples;Min_cycle;Max_cycle;Signal;HPM_P1;HPM_P2
2023/01/06 00:00:07;;;;;;;;;;;;;;;10.46;61.36;100761.09;5416182;32;35828;-67
2023/01/06 00:03:11;;;;;;;;;;;;;;;10.36;61.41;100749.16;5401256;32;34484;-84
2023/01/06 00:06:14;;;;;;;;;;;;;;;10.57;61.14;100769.50;5403233;32;35053;-68
2023/01/06 00:09:15;;;;;;;;;;;;;;;10.37;61.17;100779.75;5412746;32;34823;-83
2023/01/06 00:12:17;;;;;;;;;;;;;;;10.44;60.82;100768.16;5396404;32;43553;-68
2023/01/06 00:15:19;;;;;;;;;;;;;;;10.54;60.03;100780.09;5414922;32;35792;-68
2023/01/06 00:18:21;;;;;;;;;;;;;;;10.23;61.39;100770.53;5396250;32;36235;-85
2023/01/06 00:21:23;;;;;;;;;;;;;;;9.98;62.02;100780.94;5412337;32;35523;-85
2023/01/06 00:24:25;;;;;;;;;;;;;;;10.39;61.07;100781.44;5399464;32;34702;-83
2023/01/06 00:27:27;;;;;;;;;;;;;;;10.57;60.39;100790.50;5399251;32;35146;-68
2023/01/06 00:30:31;;;;;;;;;;;;;;;10.27;60.51;100802.84;5412543;32;35425;-76
2023/01/06 00:33:33;;;;;;;;;;;;;;;10.27;60.53;100805.47;5396847;32;35000;-83
2023/01/06 00:36:36;;;;;;;;;;;;;;;9.85;61.44;100825.97;5404151;32;34488;-69
2023/01/06 00:39:38;;;;;;;;;;;;;;;9.98;61.18;100822.06;5390301;32;35101;-68
2023/01/06 00:42:40;;;;;;;;;;;;;;;10.25;60.75;100818.66;5408876;32;34305;-84
2023/01/06 00:45:42;;;;;;;;;;;;;;;10.54;60.13;100816.87;5401013;32;35253;-83
2023/01/06 00:48:44;;;;;;;;;;;;;;;10.22;60.65;100825.72;5400632;32;35288;-84
2023/01/06 00:52:04;;;;;;;;;;;;;;;10.60;59.76;100824.56;5392859;32;35559;-85
2023/01/06 00:55:06;;;;;;;;;;;;;;;10.39;60.84;100841.03;5385967;32;34941;-68
2023/01/06 00:58:08;;;;;;;;;;;;;;;10.46;59.83;100835.53;5400538;32;34750;-68
2023/01/06 01:01:10;;;;;;;;;;;;;;;10.54;60.08;100844.03;5398249;32;35251;-84
2023/01/06 01:04:13;;;;;;;;;;;;;;;10.75;59.54;100852.97;5408881;32;34469;-68
2023/01/06 01:07:14;;;;;;;;;;;;;;;10.99;58.58;100847.84;5402699;32;35727;-84
2023/01/06 01:10:19;;;;;;;;;;;;;;;10.62;59.72;100845.53;5399121;32;44698;-84
2023/01/06 01:13:21;;;;;;;;;;;;;;;10.94;58.67;100863.75;5398263;32;863108;-76
2023/01/06 01:16:23;;;;;;;;;;;;;;;10.77;59.17;100860.84;5399302;32;20024;-77
2023/01/06 01:19:25;;;;;;;;;;;;;;;11.15;58.10;100858.72;5413320;32;20057;-83
2023/01/06 01:22:28;;;;;;;;;;;;;;;10.97;58.05;100857.56;5394303;32;33440;-69
2023/01/06 01:25:30;;;;;;;;;;;;;;;10.23;59.99;100872.13;5397735;32;35333;-85
2023/01/06 01:28:32;;;;;;;;;;;;;;;10.55;59.61;100872.00;5410443;32;33983;-85
2023/01/06 01:31:34;;;;;;;;;;;;;;;11.13;57.56;100862.22;5393409;32;34401;-67
2023/01/06 01:34:36;;;;;;;;;;;;;;;10.85;57.40;100883.34;5400623;32;33654;-85
2023/01/06 01:37:37;;;;;;;;;;;;;;;10.19;59.92;100884.50;5395515;32;33557;-85
2023/01/06 01:40:45;;;;;;;;;;;;;;;9.68;61.08;100878.97;5401583;32;33580;-83
2023/01/06 01:43:48;;;;;;;;;;;;;;;10.29;59.36;100879.84;5397690;32;44524;-87
2023/01/06 01:46:50;;;;;;;;;;;;;;;10.32;58.72;100878.91;5403319;32;33808;-86
2023/01/06 01:49:53;;;;;;;;;;;;;;;10.56;58.17;100896.53;5410896;32;33981;-68
2023/01/06 01:52:56;;;;;;;;;;;;;;;10.57;58.28;100903.53;5375253;32;33407;-77
2023/01/06 01:56:00;;;;;;;;;;;;;;;10.40;58.66;100911.91;5405374;32;33724;-84
2023/01/06 01:59:03;;;;;;;;;;;;;;;10.41;58.63;100907.53;5385934;32;33776;-69
2023/01/06 02:02:05;;;;;;;;;;;;;;;10.68;58.32;100930.31;5414021;32;33865;-84
2023/01/06 02:05:07;;;;;;;;;;;;;;;10.68;58.57;100932.09;5395093;32;34411;-67
2023/01/06 02:08:29;;;;;;;;;;;;;;;10.72;58.52;100931.97;5401279;32;32908;-68
2023/01/06 02:11:32;;;;;;;;;;;;;;;10.89;57.69;100927.97;5404494;32;33218;-86
2023/01/06 02:14:34;;;;;;;;;;;;;;;10.78;58.00;100931.78;5392203;32;34082;-77
2023/01/06 02:17:41;;;;;;;;;;;;;;;11.17;57.38;100926.16;5413650;32;34265;-76
2023/01/06 02:20:49;;;;;;;;;;;;;;;11.51;56.06;100925.88;5397425;32;34042;-68
2023/01/06 02:24:06;;;;;;;;;;;;;;;11.62;55.63;100926.34;5394874;32;45825;-68
2023/01/06 02:27:26;;;;;;;;;;;;;;;11.41;56.29;100923.62;5412640;32;34226;-83
2023/01/06 02:30:34;;;;;;;;;;;;;;;11.06;57.57;100923.00;5385036;32;33663;-77
2023/01/06 02:33:37;;;;;;;;;;;;;;;11.09;57.23;100912.41;5412614;32;33399;-68
2023/01/06 02:36:58;;;;;;;;;;;;;;;10.26;59.49;100916.72;5394001;32;33978;-85
2023/01/06 02:40:09;;;;;;;;;;;;;;;10.41;59.69;100926.78;5400338;32;33842;-84
2023/01/06 02:43:14;;;;;;;;;;;;;;;10.41;59.97;100923.28;5414679;32;34192;-83
2023/01/06 02:46:35;;;;;;;;;;;;;;;10.05;61.00;100933.94;5398101;32;33511;-67
2023/01/06 02:49:41;;;;;;;;;;;;;;;10.31;60.33;100925.34;5391966;32;34330;-86
2023/01/06 02:52:49;;;;;;;;;;;;;;;10.02;61.38;100919.13;5380199;32;34171;-68
2023/01/06 02:55:51;;;;;;;;;;;;;;;10.44;60.22;100936.34;5398975;32;45200;-67
2023/01/06 02:58:58;;;;;;;;;;;;;;;10.16;60.86;100928.37;5404862;32;33661;-83
2023/01/06 03:02:00;;;;;;;;;;;;;;;10.35;60.42;100933.97;5394020;32;34657;-84
2023/01/06 03:05:03;;;;;;;;;;;;;;;9.48;63.48;100931.97;5407198;32;33245;-67
2023/01/06 03:08:06;;;;;;;;;;;;;;;9.93;61.76;100940.38;5396472;32;33703;-86
2023/01/06 03:11:08;;;;;;;;;;;;;;;10.24;60.78;100940.44;5412333;32;33891;-85
2023/01/06 03:14:22;;;;;;;;;;;;;;;9.95;61.45;100932.47;5399789;32;34016;-67
2023/01/06 03:17:27;;;;;;;;;;;;;;;10.27;60.28;100937.69;5394650;32;33849;-83
2023/01/06 03:20:28;;;;;;;;;;;;;;;10.06;60.65;100929.53;5399023;32;34602;-68
2023/01/06 03:23:31;;;;;;;;;;;;;;;10.27;60.05;100932.44;5396772;32;33364;-68
2023/01/06 03:26:33;;;;;;;;;;;;;;;10.36;59.36;100927.81;5413289;32;33101;-76
2023/01/06 03:29:35;;;;;;;;;;;;;;;10.06;60.37;100940.91;5399801;32;33819;-67
2023/01/06 03:32:37;;;;;;;;;;;;;;;9.95;60.38;100953.47;5404068;32;34267;-67
2023/01/06 03:35:39;;;;;;;;;;;;;;;9.87;60.17;100947.56;5387753;32;34504;-69
2023/01/06 03:38:44;;;;;;;;;;;;;;;9.76;60.62;100950.47;5392724;32;33605;-67
2023/01/06 03:45:52;;;;;;;;;;;;;;;9.79;60.15;100953.03;5392419;32;34946;-69
2023/01/06 03:48:54;;;;;;;;;;;;;;;9.82;60.43;100957.34;5394032;32;44800;-68
2023/01/06 03:52:04;;;;;;;;;;;;;;;9.86;59.43;100954.59;5378770;32;34762;-85
2023/01/06 03:55:16;;;;;;;;;;;;;;;9.70;60.02;100959.37;5392138;32;33680;-85
2023/01/06 03:58:18;;;;;;;;;;;;;;;10.42;58.43;100952.13;5411485;32;46181;-68
2023/01/06 04:01:22;;;;;;;;;;;;;;;10.08;59.04;100967.12;5394059;32;33579;-69
2023/01/06 04:04:24;;;;;;;;;;;;;;;10.21;58.58;100961.47;5403564;32;32869;-84
2023/01/06 04:07:26;;;;;;;;;;;;;;;9.83;59.46;100966.94;5403911;32;33962;-68
2023/01/06 04:10:28;;;;;;;;;;;;;;;9.65;59.39;100974.38;5393204;32;32975;-78
2023/01/06 04:13:29;;;;;;;;;;;;;;;9.70;59.35;100972.50;5416394;32;34223;-84
2023/01/06 04:16:31;;;;;;;;;;;;;;;9.30;60.88;100985.78;5399309;32;33171;-77
2023/01/06 04:19:33;;;;;;;;;;;;;;;9.63;60.11;100986.69;5413665;32;33385;-69
2023/01/06 04:22:35;;;;;;;;;;;;;;;9.66;60.06;100989.25;5400912;32;33407;-68
2023/01/06 04:25:37;;;;;;;;;;;;;;;9.80;59.49;100982.78;5404278;32;34205;-85
2023/01/06 04:28:39;;;;;;;;;;;;;;;9.84;59.00;100985.25;5408269;32;33835;-85
2023/01/06 04:31:41;;;;;;;;;;;;;;;9.73;59.45;100977.69;5396151;32;34245;-68
2023/01/06 04:34:43;;;;;;;;;;;;;;;9.78;59.58;100975.78;5412262;32;34673;-85
2023/01/06 04:37:45;;;;;;;;;;;;;;;9.87;59.48;100993.06;5397797;32;34191;-84
2023/01/06 04:40:47;;;;;;;;;;;;;;;9.83;59.15;100995.81;5413880;32;44707;-83
2023/01/06 04:43:49;;;;;;;;;;;;;;;9.31;60.97;100997.13;5398345;32;33483;-85
2023/01/06 04:46:51;;;;;;;;;;;;;;;9.42;61.19;101002.97;5394342;32;34060;-68
2023/01/06 04:49:53;;;;;;;;;;;;;;;9.78;59.97;100988.91;5404571;32;33716;-85
2023/01/06 04:52:54;;;;;;;;;;;;;;;9.58;61.14;101004.31;5378291;32;33920;-85
2023/01/06 04:56:00;;;;;;;;;;;;;;;9.76;60.61;101008.22;5412612;32;33474;-77
2023/01/06 04:59:02;;;;;;;;;;;;;;;9.33;61.60;101013.69;5399356;32;33728;-69
2023/01/06 05:02:04;;;;;;;;;;;;;;;9.40;61.28;101017.88;5412429;32;33390;-69
2023/01/06 05:05:06;;;;;;;;;;;;;;;9.25;61.81;101018.25;5397661;32;34131;-68
2023/01/06 05:08:08;;;;;;;;;;;;;;;9.69;60.52;101038.16;5404094;32;33724;-85
2023/01/06 05:11:12;;;;;;;;;;;;;;;9.68;60.83;101052.19;5409831;32;33259;-68
2023/01/06 05:14:14;;;;;;;;;;;;;;;9.48;61.12;101058.78;5400733;32;33773;-85
2023/01/06 05:17:15;;;;;;;;;;;;;;;9.50;61.60;101061.38;5416288;32;33715;-84
2023/01/06 05:20:17;;;;;;;;;;;;;;;10.15;59.54;101061.47;5394916;32;43198;-68
2023/01/06 05:23:19;;;;;;;;;;;;;;;10.87;57.06;101055.97;5413071;32;33985;-68
2023/01/06 05:26:22;;;;;;;;;;;;;;;10.16;58.97;101057.94;5388588;32;33784;-84
2023/01/06 05:29:24;;;;;;;;;;;;;;;10.15;59.40;101063.22;5402687;32;33539;-68
2023/01/06 05:32:26;;;;;;;;;;;;;;;10.07;58.85;101052.94;5408068;32;34475;-85
2023/01/06 05:35:28;;;;;;;;;;;;;;;10.39;58.49;101053.87;5397108;32;33097;-84
2023/01/06 05:38:30;;;;;;;;;;;;;;;9.93;59.78;101049.81;5412904;32;33274;-68
2023/01/06 05:41:34;;;;;;;;;;;;;;;9.42;61.15;101058.94;5392997;32;34559;-85
2023/01/06 05:44:36;;;;;;;;;;;;;;;8.82;62.76;101069.00;5412700;32;33483;-84
2023/01/06 05:47:38;;;;;;;;;;;;;;;9.66;60.58;101078.50;5400442;32;33695;-68
2023/01/06 05:50:40;;;;;;;;;;;;;;;9.46;60.84;101085.94;5390931;32;33909;-68
2023/01/06 05:53:43;;;;;;;;;;;;;;;9.47;60.67;101091.19;5402255;32;34686;-68
2023/01/06 05:56:45;;;;;;;;;;;;;;;10.16;58.87;101099.09;5399974;32;33964;-69
2023/01/06 05:59:47;;;;;;;;;;;;;;;10.25;58.35;101102.41;5412425;32;44485;-84
2023/01/06 06:02:49;;;;;;;;;;;;;;;10.49;57.45;101106.12;5400210;32;33061;-85
2023/01/06 06:05:50;;;;;;;;;;;;;;;10.30;58.28;101110.12;5411430;32;33799;-67
2023/01/06 06:08:52;;;;;;;;;;;;;;;9.89;59.06;101112.03;5401556;32;33819;-85
2023/01/06 06:11:54;;;;;;;;;;;;;;;10.58;57.47;101097.13;5402221;32;31925;-68
2023/01/06 06:14:56;;;;;;;;;;;;;;;10.97;56.33;101094.28;5408870;32;33933;-68
2023/01/06 06:18:00;;;;;;;;;;;;;;;9.93;59.51;101094.47;5402049;32;33760;-69
2023/01/06 06:21:02;;;;;;;;;;;;;;;9.67;60.56;101110.84;5409103;32;34202;-76
2023/01/06 06:24:04;;;;;;;;;;;;;;;10.20;59.20;101085.00;5401347;32;33358;-68
2023/01/06 06:27:06;;;;;;;;;;;;;;;9.73;60.13;101106.31;5412625;32;34230;-69
2023/01/06 06:30:08;;;;;;;;;;;;;;;9.60;60.25;101115.37;5396826;32;33547;-86
2023/01/06 06:33:10;;;;;;;;;;;;;;;10.22;58.93;101115.56;5391537;32;34138;-68
2023/01/06 06:36:15;;;;;;;;;;;;;;;10.53;57.71;101118.28;5404562;32;33691;-85
2023/01/06 06:39:17;;;;;;;;;;;;;;;10.55;57.50;101119.09;5395325;32;47781;-84
2023/01/06 06:42:19;;;;;;;;;;;;;;;10.64;57.37;101122.38;5412153;32;33270;-85
2023/01/06 06:45:21;;;;;;;;;;;;;;;10.76;56.98;101138.69;5401380;32;34798;-85
2023/01/06 06:48:23;;;;;;;;;;;;;;;10.32;57.65;101137.25;5412995;32;33045;-68
2023/01/06 06:51:25;;;;;;;;;;;;;;;10.29;57.85;101137.31;5382382;32;33494;-70
2023/01/06 06:54:27;;;;;;;;;;;;;;;10.57;56.80;101145.34;5396400;32;33228;-85
2023/01/06 06:57:29;;;;;;;;;;;;;;;10.58;56.65;101140.06;5410818;32;32841;-69
2023/01/06 07:00:31;;;;;;;;;;;;;;;10.15;57.89;101153.41;5397485;32;33099;-84
2023/01/06 07:03:35;;;;;;;;;;;;;;;10.55;57.08;101141.87;5408533;32;34317;-77
2023/01/06 07:06:37;;;;;;;;;;;;;;;10.11;57.72;101149.16;5398142;32;33102;-85
2023/01/06 07:09:39;;;;;;;;;;;;;;;10.63;57.01;101153.06;5413357;32;33538;-84
2023/01/06 07:12:41;;;;;;;;;;;;;;;10.67;56.78;101153.84;5392535;32;33793;-84
2023/01/06 07:15:43;;;;;;;;;;;;;;;10.46;57.10;101171.06;5390432;32;33928;-69
2023/01/06 07:18:45;;;;;;;;;;;;;;;10.56;56.89;101175.16;5405266;32;33669;-84
2023/01/06 07:21:47;;;;;;;;;;;;;;;10.59;56.98;101172.44;5399074;32;44971;-85
2023/01/06 07:24:49;;;;;;;;;;;;;;;10.93;56.26;101172.37;5416680;32;33759;-68
2023/01/06 07:27:55;;;;;;;;;;;;;;;10.28;58.13;101173.25;5403013;32;34349;-85
2023/01/06 07:30:57;;;;;;;;;;;;;;;10.30;58.64;101187.22;5402987;32;33745;-68
2023/01/06 07:33:59;;;;;;;;;;;;;;;10.51;57.60;101177.91;5403050;32;33748;-84
2023/01/06 07:37:01;;;;;;;;;;;;;;;9.94;58.64;101180.22;5394388;32;34293;-84
2023/01/06 07:40:03;;;;;;;;;;;;;;;10.65;57.85;101182.81;5415253;32;34795;-69
2023/01/06 07:43:06;;;;;;;;;;;;;;;10.87;56.99;101176.94;5398209;32;33119;-68
2023/01/06 07:46:08;;;;;;;;;;;;;;;10.86;56.84;101176.09;5418993;32;33952;-85
2023/01/06 07:49:10;;;;;;;;;;;;;;;11.02;56.45;101177.41;5402477;32;34311;-84
2023/01/06 07:52:12;;;;;;;;;;;;;;;11.17;55.71;101178.72;5396058;32;34603;-68
2023/01/06 07:55:14;;;;;;;;;;;;;;;11.08;56.14;101184.25;5408246;32;33513;-69
2023/01/06 07:58:17;;;;;;;;;;;;;;;10.45;57.17;101187.72;5402267;32;44756;-84
2023/01/06 08:01:21;;;;;;;;;;;;;;;10.56;57.02;101185.66;5413654;32;33718;-84
2023/01/06 08:04:24;;;;;;;;;;;;;;;10.44;57.73;101193.91;5400773;32;33026;-68
2023/01/06 08:07:25;;;;;;;;;;;;;;;10.93;56.49;101185.53;5419904;32;32965;-70
2023/01/06 08:10:27;;;;;;;;;;;;;;;10.47;57.33;101196.44;5399673;32;34385;-85
2023/01/06 08:13:29;;;;;;;;;;;;;;;10.87;56.01;101198.84;5408375;32;34492;-67
2023/01/06 08:16:31;;;;;;;;;;;;;;;9.85;58.53;101204.91;5408089;32;33449;-84
2023/01/06 08:19:33;;;;;;;;;;;;;;;9.69;59.05;101187.78;5389394;32;33541;-85
2023/01/06 08:22:35;;;;;;;;;;;;;;;10.04;57.87;101184.31;5407883;32;33636;-67
2023/01/06 08:25:37;;;;;;;;;;;;;;;9.94;58.19;101172.31;5403462;32;33664;-68
2023/01/06 08:28:39;;;;;;;;;;;;;;;10.25;57.50;101170.72;5418429;32;33594;-68
2023/01/06 08:31:42;;;;;;;;;;;;;;;9.86;58.84;101171.66;5404078;32;34411;-68
2023/01/06 08:34:43;;;;;;;;;;;;;;;9.63;58.49;101159.91;5410980;32;34827;-67
2023/01/06 08:37:45;;;;;;;;;;;;;;;9.56;58.88;101160.94;5406264;32;34581;-68
2023/01/06 08:40:47;;;;;;;;;;;;;;;9.39;59.76;101157.81;5404245;32;46135;-67
2023/01/06 08:43:49;;;;;;;;;;;;;;;9.63;58.77;101152.03;5416733;32;33703;-70
2023/01/06 08:46:51;;;;;;;;;;;;;;;9.53;59.47;101158.38;5404256;32;33449;-69
2023/01/06 08:49:53;;;;;;;;;;;;;;;9.67;59.22;101158.09;5416750;32;34101;-68
2023/01/06 08:52:55;;;;;;;;;;;;;;;9.08;61.02;101148.00;5383066;32;33499;-70
2023/01/06 08:55:57;;;;;;;;;;;;;;;9.73;59.47;101156.19;5409750;32;33587;-68
2023/01/06 08:59:00;;;;;;;;;;;;;;;10.41;57.58;101157.16;5406787;32;35196;-69
2023/01/06 09:02:02;;;;;;;;;;;;;;;9.83;59.72;101159.44;5403381;32;32999;-85
2023/01/06 09:05:05;;;;;;;;;;;;;;;10.44;57.88;101170.25;5405947;32;33003;-68
2023/01/06 09:08:07;;;;;;;;;;;;;;;10.21;58.03;101158.50;5398356;32;33852;-85
2023/01/06 09:11:09;;;;;;;;;;;;;;;10.01;58.78;101173.91;5418371;32;33619;-85
2023/01/06 09:14:12;;;;;;;;;;;;;;;10.89;56.54;101188.31;5403806;32;33921;-86
2023/01/06 09:17:15;;;;;;;;;;;;;;;10.64;56.55;101196.00;5408568;32;33230;-68
2023/01/06 09:20:16;;;;;;;;;;;;;;;10.39;56.93;101207.13;5412579;32;46178;-84
2023/01/06 09:23:20;;;;;;;;;;;;;;;10.67;56.05;101209.03;5402731;32;33216;-85
2023/01/06 09:26:22;;;;;;;;;;;;;;;10.88;55.67;101199.72;5416764;32;33467;-69
2023/01/06 09:29:24;;;;;;;;;;;;;;;10.53;57.31;101201.53;5399932;32;34198;-70
2023/01/06 09:32:26;;;;;;;;;;;;;;;11.76;53.67;101191.84;5413843;32;33793;-77
2023/01/06 09:35:28;;;;;;;;;;;;;;;11.81;52.29;101194.38;5402216;32;33023;-83
2023/01/06 09:38:30;;;;;;;;;;;;;;;11.56;52.18;101194.25;5405813;32;33469;-68
2023/01/06 09:41:50;;;;;;;;;;;;;;;11.36;52.75;101189.56;5408524;32;34750;-85
2023/01/06 09:44:52;;;;;;;;;;;;;;;11.91;50.05;101199.31;5401416;32;45195;-68
2023/01/06 09:47:55;;;;;;;;;;;;;;;11.24;51.27;101193.44;5418149;32;34346;-84
2023/01/06 09:50:59;;;;;;;;;;;;;;;11.48;51.07;101183.94;5390777;32;33293;-85
2023/01/06 09:54:14;;;;;;;;;;;;;;;11.09;52.38;101184.22;5407548;32;32874;-86
2023/01/06 09:57:20;;;;;;;;;;;;;;;12.34;49.18;101194.41;5406649;32;43409;-83
2023/01/06 10:00:36;;;;;;;;;;;;;;;12.40;49.07;101192.44;5399214;32;34223;-68
2023/01/06 10:03:38;;;;;;;;;;;;;;;12.56;48.34;101191.91;5415332;32;34351;-69
2023/01/06 10:06:44;;;;;;;;;;;;;;;11.96;48.92;101185.13;5395072;32;33745;-69
2023/01/06 10:10:11;;;;;;;;;;;;;;;11.91;49.15;101185.25;5414062;32;43667;-86
2023/01/06 10:13:40;;;;;;;;;;;;;;;11.96;48.23;101179.84;5374532;32;33633;-68
2023/01/06 10:16:42;;;;;;;;;;;;;;;11.71;49.20;101188.50;5394816;32;34074;-69
2023/01/06 10:20:19;;;;;;;;;;;;;;;11.51;48.89;101180.34;5408262;32;33096;-68
2023/01/06 10:23:27;;;;;;;;;;;;;;;11.91;48.07;101180.88;5312415;32;34176;-69
2023/01/06 10:26:30;;;;;;;;;;;;;;;12.05;47.96;101177.81;5399328;32;33119;-67
2023/01/06 10:29:33;;;;;;;;;;;;;;;12.23;47.35;101165.78;5416723;32;34237;-85
2023/01/06 10:32:35;;;;;;;;;;;;;;;11.96;47.88;101166.69;5397541;32;34203;-69
2023/01/06 10:35:37;;;;;;;;;;;;;;;11.70;48.19;101170.13;5413108;32;34171;-68
2023/01/06 10:38:42;;;;;;;;;;;;;;;12.09;47.97;101168.87;5399690;32;34064;-84
2023/01/06 10:42:54;;;;;;;;;;;;;;;12.13;47.19;101167.00;5409005;32;33614;-70
2023/01/06 10:45:16;;;;;;;;;;;;;;;12.53;46.37;101160.38;5405633;32;37044;-68
2023/01/06 10:48:24;;;;;;;;;;;;;;;12.42;45.34;101166.88;5385076;32;44824;-70
2023/01/06 10:51:39;;;;;;;;;;;;;;;12.14;46.32;101164.31;5398999;32;33174;-68
2023/01/06 10:54:41;;;;;;;;;;;;;;;11.76;47.29;101160.25;5389551;32;34288;-69
2023/01/06 10:57:43;;;;;;;;;;;;;;;11.68;46.60;101161.41;5409967;32;34995;-86
2023/01/06 11:00:54;;;;;;;;;;;;;;;11.25;47.78;101175.87;5405279;32;33497;-68
2023/01/06 11:04:08;;;;;;;;;;;;;;;12.11;46.46;101166.22;5384741;32;32513;-69
2023/01/06 11:07:11;;;;;;;;;;;;;;;11.98;46.03;101159.59;5402842;32;33640;-85
2023/01/06 11:10:26;;;;;;;;;;;;;;;12.03;45.85;101157.66;5393613;32;33349;-68
2023/01/06 11:13:29;;;;;;;;;;;;;;;12.04;46.02;101160.25;5403137;32;33375;-70
2023/01/06 11:16:31;;;;;;;;;;;;;;;12.00;46.24;101158.63;5393074;32;33396;-69
2023/01/06 11:19:40;;;;;;;;;;;;;;;12.71;44.68;101143.91;5395706;32;33880;-69
2023/01/06 11:22:42;;;;;;;;;;;;;;;12.70;44.84;101145.69;5414588;32;33607;-68
2023/01/06 11:25:47;;;;;;;;;;;;;;;13.24;44.64;101136.66;5402965;32;33647;-68
2023/01/06 11:28:53;;;;;;;;;;;;;;;13.61;44.00;101142.31;5414793;32;44837;-85
2023/01/06 11:31:56;;;;;;;;;;;;;;;13.83;43.32;101137.88;5397680;32;32928;-69
2023/01/06 11:34:59;;;;;;;;;;;;;;;14.40;42.23;101132.84;5408602;32;32842;-67
2023/01/06 11:38:02;;;;;;;;;;;;;;;13.85;43.77;101129.88;5405161;32;34154;-85
2023/01/06 11:41:04;;;;;;;;;;;;;;;14.54;41.74;101130.50;5401495;32;34281;-85
2023/01/06 11:44:25;;;;;;;;;;;;;;;15.26;40.33;101129.88;5413732;32;35036;-78
2023/01/06 11:47:27;;;;;;;;;;;;;;;15.25;39.51;101120.22;5399413;32;33201;-68
2023/01/06 11:50:28;;;;;;;;;;;;;;;14.14;41.68;101128.69;5408285;32;33053;-69
2023/01/06 11:53:32;;;;;;;;;;;;;;;14.67;39.42;101131.69;5388450;32;33126;-70
2023/01/06 11:56:35;;;;;;;;;;;;;;;14.58;39.77;101132.97;5400434;32;33933;-85
2023/01/06 11:59:43;;;;;;;;;;;;;;;14.29;39.46;101135.94;5417883;32;33790;-68
2023/01/06 12:03:02;;;;;;;;;;;;;;;14.69;38.76;101135.13;5398649;32;32919;-86
2023/01/06 12:06:15;;;;;;;;;;;;;;;14.50;39.80;101139.53;5399258;32;36148;-76
2023/01/06 12:09:22;;;;;;;;;;;;;;;13.48;41.52;101126.94;5395909;32;46349;-68
2023/01/06 12:12:25;;;;;;;;;;;;;;;13.64;41.14;101121.03;5389025;32;33838;-85
2023/01/06 12:15:28;;;;;;;;;;;;;;;14.63;39.61;101101.00;5414647;32;32999;-70
2023/01/06 12:18:30;;;;;;;;;;;;;;;15.79;37.55;101086.75;5401080;32;33510;-70
2023/01/06 12:21:33;;;;;;;;;;;;;;;16.09;36.28;101076.38;5411121;32;32805;-69
2023/01/06 12:24:35;;;;;;;;;;;;;;;15.37;37.99;101090.53;5396879;32;33995;-85
2023/01/06 12:27:49;;;;;;;;;;;;;;;15.88;37.23;101087.16;5414930;32;34203;-77
2023/01/06 12:31:09;;;;;;;;;;;;;;;16.63;35.98;101077.13;5401446;32;45059;-85
2023/01/06 12:34:14;;;;;;;;;;;;;;;16.90;35.97;101073.00;5393050;32;34300;-85
2023/01/06 12:37:16;;;;;;;;;;;;;;;15.78;37.95;101087.66;5407109;32;33203;-84
2023/01/06 12:40:38;;;;;;;;;;;;;;;17.05;36.17;101079.25;5403893;32;34609;-70
2023/01/06 12:43:41;;;;;;;;;;;;;;;16.89;36.18;101081.06;5410687;32;33942;-83
2023/01/06 12:46:49;;;;;;;;;;;;;;;14.81;39.91;101088.72;5400441;32;33790;-69
2023/01/06 12:49:56;;;;;;;;;;;;;;;15.53;39.08;101080.06;5391404;32;44881;-85
2023/01/06 12:53:00;;;;;;;;;;;;;;;16.50;36.94;101067.16;5393609;32;34605;-69
2023/01/06 12:56:32;;;;;;;;;;;;;;;14.85;39.77;101074.44;5399797;32;34041;-68
2023/01/06 12:59:33;;;;;;;;;;;;;;;17.01;36.35;101054.69;5411283;32;33330;-84
2023/01/06 13:02:39;;;;;;;;;;;;;;;16.24;36.64;101055.25;5402857;32;34809;-70
2023/01/06 13:06:07;;;;;;;;;;;;;;;17.87;34.85;101058.66;5400168;32;34324;-69
2023/01/06 13:09:12;;;;;;;;;;;;;;;16.92;36.28;101057.84;5404483;32;33831;-69
2023/01/06 13:12:16;;;;;;;;;;;;;;;16.98;36.30;101051.34;5394298;32;32967;-85
2023/01/06 13:15:23;;;;;;;;;;;;;;;16.24;37.74;101060.56;5406346;32;48013;-71
2023/01/06 13:18:33;;;;;;;;;;;;;;;16.86;36.63;101055.50;5395171;32;34160;-70
2023/01/06 13:21:35;;;;;;;;;;;;;;;15.91;39.02;101062.31;5393202;32;33583;-80
2023/01/06 13:24:47;;;;;;;;;;;;;;;15.35;40.35;101058.81;5407659;32;34013;-84
2023/01/06 13:27:49;;;;;;;;;;;;;;;15.20;40.87;101070.16;5394272;32;44518;-69
2023/01/06 13:31:11;;;;;;;;;;;;;;;14.22;42.67;101065.75;5408020;32;33495;-86
2023/01/06 13:34:27;;;;;;;;;;;;;;;14.48;42.63;101073.44;5397013;32;33133;-86
2023/01/06 13:37:35;;;;;;;;;;;;;;;14.98;41.79;101075.59;5392654;32;34397;-69
2023/01/06 13:40:38;;;;;;;;;;;;;;;15.21;41.18;101079.81;5413491;32;34376;-68
2023/01/06 13:43:40;;;;;;;;;;;;;;;14.59;42.75;101084.41;5393936;32;33547;-69
2023/01/06 13:46:42;;;;;;;;;;;;;;;14.15;43.19;101088.09;5408336;32;33038;-85
2023/01/06 13:49:44;;;;;;;;;;;;;;;13.63;45.19;101095.56;5392913;32;33379;-69
2023/01/06 13:52:46;;;;;;;;;;;;;;;13.85;44.76;101092.88;5372638;32;44642;-69
2023/01/06 13:55:48;;;;;;;;;;;;;;;14.45;43.31;101076.19;5384567;32;44049;-70
2023/01/06 13:58:50;;;;;;;;;;;;;;;13.82;44.23;101083.31;5398260;32;33582;-70
2023/01/06 14:01:53;;;;;;;;;;;;;;;13.81;44.70;101078.97;5393890;32;34323;-85
2023/01/06 14:04:56;;;;;;;;;;;;;;;13.87;44.25;101078.69;5379842;32;34376;-70
2023/01/06 14:08:01;;;;;;;;;;;;;;;14.79;42.76;101057.03;5411093;32;33111;-77
2023/01/06 14:11:04;;;;;;;;;;;;;;;14.97;42.27;101055.34;5391096;32;33111;-85
2023/01/06 14:14:15;;;;;;;;;;;;;;;14.67;42.08;101060.25;5388920;32;34362;-69
2023/01/06 14:17:27;;;;;;;;;;;;;;;14.84;42.25;101062.12;5405448;32;45099;-69
2023/01/06 14:20:31;;;;;;;;;;;;;;;15.30;41.43;101049.38;5396464;32;33952;-70
2023/01/06 14:23:33;;;;;;;;;;;;;;;15.15;41.79;101046.53;5399859;32;33249;-68
2023/01/06 14:26:47;;;;;;;;;;;;;;;15.26;41.19;101047.78;5390668;32;35344;-69
2023/01/06 14:30:00;;;;;;;;;;;;;;;15.31;41.24;101048.44;5397059;32;46711;-84
2023/01/06 14:33:21;;;;;;;;;;;;;;;14.33;42.83;101051.16;5392827;32;33835;-78
2023/01/06 14:36:23;;;;;;;;;;;;;;;14.77;42.53;101060.69;5394640;32;44600;-69
2023/01/06 14:39:25;;;;;;;;;;;;;;;14.41;43.23;101056.09;5408523;32;34321;-77
2023/01/06 14:42:37;;;;;;;;;;;;;;;14.93;42.07;101059.03;5394213;32;33199;-77
2023/01/06 14:45:39;;;;;;;;;;;;;;;14.05;43.90;101071.78;5407081;32;33894;-69
2023/01/06 14:48:43;;;;;;;;;;;;;;;14.17;43.46;101073.03;5391174;32;34008;-85
2023/01/06 14:51:45;;;;;;;;;;;;;;;13.91;44.24;101064.44;5376957;32;33652;-85
2023/01/06 14:54:47;;;;;;;;;;;;;;;13.80;44.90;101071.97;5396303;32;45651;-69
2023/01/06 14:57:49;;;;;;;;;;;;;;;14.17;43.80;101059.81;5376799;32;34000;-84
2023/01/06 15:00:52;;;;;;;;;;;;;;;14.69;42.86;101063.69;5400201;32;33302;-85
2023/01/06 15:03:57;;;;;;;;;;;;;;;14.43;43.40;101067.47;5397321;32;34720;-68
2023/01/06 15:07:13;;;;;;;;;;;;;;;13.85;45.09;101074.37;5401332;32;33174;-85
2023/01/06 15:10:20;;;;;;;;;;;;;;;13.19;46.84;101077.00;5408309;32;35190;-68
2023/01/06 15:13:29;;;;;;;;;;;;;;;13.39;46.20;101065.69;5385010;32;44675;-69
2023/01/06 15:16:31;;;;;;;;;;;;;;;12.79;47.81;101064.50;5392134;32;33426;-86
2023/01/06 15:19:33;;;;;;;;;;;;;;;13.63;45.83;101071.78;5397984;32;33702;-84
2023/01/06 15:22:35;;;;;;;;;;;;;;;13.23;46.67;101065.47;5404849;32;33999;-85
2023/01/06 15:25:37;;;;;;;;;;;;;;;13.38;46.65;101066.63;5396350;32;35304;-85
2023/01/06 15:28:39;;;;;;;;;;;;;;;12.48;48.83;101071.75;5393663;32;34419;-85
2023/01/06 15:31:41;;;;;;;;;;;;;;;12.13;50.30;101069.50;5408175;32;33139;-68
2023/01/06 15:34:46;;;;;;;;;;;;;;;12.57;49.39;101062.66;5389497;32;33557;-68
2023/01/06 15:37:57;;;;;;;;;;;;;;;12.66;49.54;101056.16;5403735;32;48148;-84
2023/01/06 15:41:00;;;;;;;;;;;;;;;13.39;47.75;101052.50;5392990;32;34188;-70
2023/01/06 15:44:15;;;;;;;;;;;;;;;12.54;49.84;101061.91;5404883;32;34638;-68
2023/01/06 15:47:31;;;;;;;;;;;;;;;12.54;50.31;101056.63;5406865;32;44783;-83
2023/01/06 15:50:33;;;;;;;;;;;;;;;13.06;49.00;101046.75;5385415;32;33277;-85
2023/01/06 15:53:35;;;;;;;;;;;;;;;12.91;49.71;101053.47;5403158;32;33933;-85